Millington, Tennessee
Current Conditions -  °F | °C
As of 4:35 AM on Thursday 18 Dec 2014 (Local Time) from KNQA Reporting Station
Overcast Overcast  
Wind Chill: 36°   Ceiling: 6000
Heat Index: 36°   Visibility: 5mi
Dew Point: 36°   Wind: 3mph
Humidity: 100%   Direction: 60°ENE
Pressure: 30.22"   Gusts: NA
Location:  35.34°N, 89.9°W
Report Text: KNQA 181035Z AUTO 06003KT 5SM OVC060 02/02 A3022 RMK
Loading
Personal Weather Stations






























Interactive Weather Map New forecast layout! Learn more

10-Day Weather Forecast

Advertisements
Track Severe Weather on mobile